Time;durP1;ratioP1;P1;durP2;ratioP2;P2;SDS_P1;SDS_P2;PMS_P1;PMS_P2;Temp;Humidity;BMP_temperature;BMP_pressure;BME280_temperature;BME280_humidity;BME280_pressure;Samples;Min_cycle;Max_cycle;Signal;HPM_P1;HPM_P2
2021/04/20 00:02:04;;;;;;;59.42;31.17;;;8.70;99.90;;;;;;5120386;28;20007;-81
2021/04/20 00:04:30;;;;;;;72.05;36.40;;;8.70;99.90;;;;;;5118908;28;20026;-74
2021/04/20 00:06:56;;;;;;;102.47;49.55;;;8.70;99.90;;;;;;5120934;28;20027;-82
2021/04/20 00:09:22;;;;;;;70.63;33.33;;;8.70;99.90;;;;;;5119372;28;20024;-81
2021/04/20 00:11:48;;;;;;;56.88;28.83;;;8.60;99.90;;;;;;5119130;28;20020;-81
2021/04/20 00:14:16;;;;;;;202.35;79.85;;;8.60;99.90;;;;;;5119629;28;20026;-75
2021/04/20 00:16:42;;;;;;;96.10;43.97;;;8.60;99.90;;;;;;5117248;28;20035;-81
2021/04/20 00:19:08;;;;;;;56.97;29.45;;;8.60;99.90;;;;;;5119286;28;20030;-77
2021/04/20 00:21:36;;;;;;;86.68;39.13;;;8.60;99.90;;;;;;5119252;28;19996;-75
2021/04/20 00:24:02;;;;;;;53.13;26.45;;;8.70;99.90;;;;;;5119425;28;20098;-82
2021/04/20 00:26:28;;;;;;;48.40;25.38;;;8.60;99.90;;;;;;5119511;28;20126;-82
2021/04/20 00:28:54;;;;;;;50.55;26.63;;;8.60;99.90;;;;;;5118497;28;20058;-74
2021/04/20 00:31:20;;;;;;;112.15;45.25;;;8.60;99.90;;;;;;5119791;28;20016;-74
2021/04/20 00:33:47;;;;;;;214.65;86.25;;;8.70;99.90;;;;;;5117221;28;20071;-80
2021/04/20 00:36:13;;;;;;;114.35;49.88;;;8.70;99.90;;;;;;5119400;28;20015;-79
2021/04/20 00:38:39;;;;;;;84.45;36.60;;;8.70;99.90;;;;;;5117278;28;20032;-72
2021/04/20 00:41:10;;;;;;;78.10;35.20;;;8.70;99.90;;;;;;5119800;28;20373;-73
2021/04/20 00:43:40;;;;;;;134.00;56.45;;;8.70;99.90;;;;;;5117300;28;20380;-80
2021/04/20 00:46:10;;;;;;;126.32;51.65;;;8.80;99.90;;;;;;5118348;28;20046;-77
2021/04/20 00:48:37;;;;;;;98.00;40.88;;;8.80;99.90;;;;;;5119421;28;20024;-79
2021/04/20 00:51:05;;;;;;;77.75;36.30;;;8.80;99.90;;;;;;5118963;28;20032;-81
2021/04/20 00:53:31;;;;;;;41.83;23.80;;;8.70;99.90;;;;;;5118298;28;20020;-74
2021/04/20 00:55:57;;;;;;;47.35;23.15;;;8.60;99.90;;;;;;5119603;28;20039;-80
2021/04/20 00:58:23;;;;;;;62.67;28.95;;;8.60;99.90;;;;;;5118162;28;20051;-80
2021/04/20 01:00:50;;;;;;;43.67;27.38;;;8.60;99.90;;;;;;5116989;28;20145;-75
2021/04/20 01:03:16;;;;;;;107.65;40.63;;;8.60;99.90;;;;;;5118291;28;20020;-80
2021/04/20 01:05:43;;;;;;;44.88;26.33;;;8.60;99.90;;;;;;5117747;28;20362;-81
2021/04/20 01:08:11;;;;;;;36.97;20.20;;;8.50;99.90;;;;;;5119407;28;20415;-75
2021/04/20 01:10:54;;;;;;;66.05;34.72;;;8.40;99.90;;;;;;5118097;28;20023;-81
2021/04/20 01:13:23;;;;;;;42.30;22.27;;;8.40;99.90;;;;;;5118151;28;20495;-79
2021/04/20 01:15:50;;;;;;;47.90;25.13;;;8.40;99.90;;;;;;5117937;28;20481;-74
2021/04/20 01:18:28;;;;;;;73.13;30.75;;;8.40;99.90;;;;;;5118164;28;20034;-78
2021/04/20 01:20:59;;;;;;;35.28;20.48;;;8.40;99.90;;;;;;5119091;28;20106;-75
2021/04/20 01:23:53;;;;;;;47.85;24.98;;;8.40;99.90;;;;;;5117675;28;20024;-74
2021/04/20 01:26:22;;;;;;;48.78;22.58;;;8.50;99.90;;;;;;5115379;28;20051;-74
2021/04/20 01:28:48;;;;;;;104.45;39.97;;;8.50;99.90;;;;;;5118971;28;20020;-75
2021/04/20 01:31:15;;;;;;;66.22;27.70;;;8.50;99.90;;;;;;5117509;28;20026;-74
2021/04/20 01:33:42;;;;;;;67.43;28.27;;;8.50;99.90;;;;;;5118197;28;20084;-81
2021/04/20 01:36:11;;;;;;;62.83;27.17;;;8.60;99.90;;;;;;5116729;28;20038;-76
2021/04/20 01:38:42;;;;;;;33.55;17.13;;;8.50;99.90;;;;;;5118191;28;20031;-78
2021/04/20 01:41:08;;;;;;;31.65;16.70;;;8.50;99.90;;;;;;5117013;28;20036;-77
2021/04/20 01:43:34;;;;;;;51.13;24.90;;;8.50;99.90;;;;;;5117461;28;20026;-76
2021/04/20 01:46:00;;;;;;;22.25;13.45;;;8.50;99.90;;;;;;5117200;28;20020;-81
2021/04/20 01:48:27;;;;;;;36.78;19.20;;;8.50;99.90;;;;;;5117186;28;20102;-79
2021/04/20 01:50:53;;;;;;;53.83;24.88;;;8.50;99.90;;;;;;5123186;28;20104;-73
2021/04/20 01:53:20;;;;;;;29.15;16.50;;;8.50;99.90;;;;;;5123168;28;20058;-81
2021/04/20 01:55:48;;;;;;;27.58;15.93;;;8.50;99.90;;;;;;5121596;28;20046;-82
2021/04/20 01:58:17;;;;;;;26.38;16.80;;;8.50;99.90;;;;;;5121661;28;20504;-76
2021/04/20 02:00:43;;;;;;;75.30;33.88;;;8.50;99.90;;;;;;5119999;28;20019;-76
2021/04/20 02:03:10;;;;;;;57.88;26.15;;;8.50;99.90;;;;;;5122052;28;20106;-73
2021/04/20 02:05:37;;;;;;;45.15;21.30;;;8.40;99.90;;;;;;5120705;28;20066;-74
2021/04/20 02:08:05;;;;;;;51.85;26.83;;;8.50;99.90;;;;;;5121912;28;20072;-81
2021/04/20 02:10:32;;;;;;;24.38;15.60;;;8.40;99.90;;;;;;5122239;28;20020;-79
2021/04/20 02:12:58;;;;;;;28.35;17.10;;;8.40;99.90;;;;;;5122446;28;20061;-81
2021/04/20 02:15:24;;;;;;;21.95;13.95;;;8.30;99.90;;;;;;5121208;28;20024;-74
2021/04/20 02:17:51;;;;;;;31.75;18.95;;;8.40;99.90;;;;;;5121590;28;20016;-79
2021/04/20 02:20:17;;;;;;;31.20;20.52;;;8.30;99.90;;;;;;5121522;28;20016;-76
2021/04/20 02:22:46;;;;;;;36.20;22.80;;;8.30;99.90;;;;;;5123535;28;20034;-80
2021/04/20 02:25:14;;;;;;;31.20;19.70;;;8.30;99.90;;;;;;5124767;27;20012;-81
2021/04/20 02:27:41;;;;;;;38.95;25.88;;;8.40;99.90;;;;;;5121664;28;20493;-80
2021/04/20 02:30:12;;;;;;;48.92;27.48;;;8.30;99.90;;;;;;5121758;28;20055;-74
2021/04/20 02:32:41;;;;;;;82.63;41.53;;;8.50;99.90;;;;;;5120050;27;20030;-76
2021/04/20 02:35:11;;;;;;;108.50;55.55;;;8.40;99.90;;;;;;5120695;28;20505;-74
2021/04/20 02:37:38;;;;;;;63.95;36.75;;;8.40;99.90;;;;;;5123062;28;20521;-74
2021/04/20 02:40:09;;;;;;;117.10;66.97;;;8.40;99.90;;;;;;5122770;28;20057;-76
2021/04/20 02:42:37;;;;;;;30.17;19.60;;;8.40;99.90;;;;;;5120959;28;20027;-78
2021/04/20 02:45:06;;;;;;;29.15;19.30;;;8.40;99.90;;;;;;5121118;28;20016;-73
2021/04/20 02:47:36;;;;;;;28.88;19.48;;;8.20;99.90;;;;;;5122912;28;20000;-78
2021/04/20 02:50:11;;;;;;;47.97;25.60;;;8.30;99.90;;;;;;5119670;28;20028;-80
2021/04/20 02:52:38;;;;;;;27.42;15.73;;;8.30;99.90;;;;;;5118218;28;20036;-78
2021/04/20 02:55:10;;;;;;;46.95;25.33;;;8.30;99.90;;;;;;5120846;28;20023;-80
2021/04/20 02:57:38;;;;;;;62.42;30.13;;;8.30;99.90;;;;;;5119310;28;20063;-74
2021/04/20 03:00:06;;;;;;;36.53;18.90;;;8.40;99.90;;;;;;5118595;28;20023;-76
2021/04/20 03:02:33;;;;;;;41.03;21.60;;;8.30;99.90;;;;;;5118518;28;20015;-75
2021/04/20 03:05:00;;;;;;;57.58;29.05;;;8.20;99.90;;;;;;5123524;27;20011;-81
2021/04/20 03:07:26;;;;;;;58.97;27.30;;;8.30;99.90;;;;;;5122989;28;20000;-81
2021/04/20 03:09:52;;;;;;;55.28;27.05;;;8.30;99.90;;;;;;5120586;28;20012;-81
2021/04/20 03:12:21;;;;;;;89.93;43.03;;;8.30;99.90;;;;;;5122049;27;20024;-74
2021/04/20 03:14:48;;;;;;;52.92;30.73;;;8.30;99.90;;;;;;5119391;28;20043;-80
2021/04/20 03:17:14;;;;;;;32.15;19.58;;;8.20;99.90;;;;;;5121805;28;20023;-81
2021/04/20 03:19:40;;;;;;;22.52;16.73;;;8.30;99.90;;;;;;5118990;27;20030;-78
2021/04/20 03:22:08;;;;;;;22.48;17.38;;;8.10;99.90;;;;;;5120063;28;20020;-81
2021/04/20 03:24:59;;;;;;;72.32;34.42;;;8.20;99.90;;;;;;5120693;28;20016;-79
2021/04/20 03:27:25;;;;;;;26.20;17.63;;;8.20;99.90;;;;;;5119355;28;20054;-73
2021/04/20 03:29:53;;;;;;;34.58;22.70;;;8.10;99.90;;;;;;5119218;28;20024;-80
2021/04/20 03:32:18;;;;;;;26.25;18.35;;;8.10;99.90;;;;;;5121334;28;20031;-75
2021/04/20 03:34:52;;;;;;;21.15;16.83;;;8.00;99.90;;;;;;5119149;28;20019;-76
2021/04/20 03:37:26;;;;;;;28.05;21.77;;;8.00;99.90;;;;;;5119286;28;20024;-74
2021/04/20 03:39:55;;;;;;;22.17;16.98;;;7.90;99.90;;;;;;5122320;27;20474;-81
2021/04/20 03:42:29;;;;;;;24.85;18.10;;;7.90;99.90;;;;;;5119822;28;20027;-77
2021/04/20 03:45:00;;;;;;;22.10;17.05;;;7.90;99.90;;;;;;5121732;28;20055;-81
2021/04/20 03:47:41;;;;;;;26.27;18.27;;;8.00;99.90;;;;;;5120198;28;20055;-77
2021/04/20 03:50:15;;;;;;;26.17;18.77;;;7.90;99.90;;;;;;5119238;28;20469;-74
2021/04/20 03:52:50;;;;;;;24.08;16.83;;;7.90;99.90;;;;;;5120652;28;20019;-73
2021/04/20 03:55:20;;;;;;;27.13;18.33;;;7.90;99.90;;;;;;5119900;28;20016;-80
2021/04/20 03:57:47;;;;;;;24.42;17.85;;;7.90;99.90;;;;;;5120635;28;20008;-78
2021/04/20 04:00:16;;;;;;;25.90;19.52;;;7.80;99.90;;;;;;5120038;27;20111;-80
2021/04/20 04:02:45;;;;;;;23.60;16.10;;;7.90;99.90;;;;;;5121864;28;20023;-74
2021/04/20 04:05:16;;;;;;;18.58;13.63;;;7.80;99.90;;;;;;5121720;28;20020;-82
2021/04/20 04:07:44;;;;;;;23.00;15.70;;;7.90;99.90;;;;;;5119439;27;20016;-75
2021/04/20 04:10:11;;;;;;;29.55;18.38;;;7.90;99.90;;;;;;5121725;28;20027;-81
2021/04/20 04:12:43;;;;;;;27.08;18.02;;;7.90;99.90;;;;;;5120963;28;20541;-80
2021/04/20 04:15:14;;;;;;;47.90;25.92;;;8.00;99.90;;;;;;5119531;28;20012;-74
2021/04/20 04:17:45;;;;;;;56.40;28.17;;;8.10;99.90;;;;;;5118655;28;20477;-73
2021/04/20 04:20:13;;;;;;;57.25;31.42;;;8.10;99.90;;;;;;5122267;28;20422;-81
2021/04/20 04:22:48;;;;;;;59.47;32.45;;;8.20;99.90;;;;;;5120132;28;20003;-74
2021/04/20 04:25:17;;;;;;;62.72;32.20;;;8.30;99.90;;;;;;5119765;28;20026;-81
2021/04/20 04:27:46;;;;;;;60.17;31.83;;;8.30;99.90;;;;;;5119303;28;20059;-76
2021/04/20 04:30:14;;;;;;;60.00;33.05;;;8.30;99.90;;;;;;5120047;28;20087;-77
2021/04/20 04:32:43;;;;;;;44.97;30.35;;;8.40;99.90;;;;;;5119160;28;20535;-78
2021/04/20 04:35:10;;;;;;;65.90;49.70;;;8.30;99.90;;;;;;5120141;28;20022;-79
2021/04/20 04:37:37;;;;;;;56.65;42.50;;;8.40;99.90;;;;;;5117853;28;20015;-76
2021/04/20 04:40:05;;;;;;;55.40;40.88;;;8.50;99.90;;;;;;5117712;28;20400;-76
2021/04/20 04:42:31;;;;;;;48.60;34.40;;;8.50;99.90;;;;;;5116651;28;20106;-77
2021/04/20 04:44:58;;;;;;;36.90;27.98;;;8.50;99.90;;;;;;5118906;28;20023;-73
2021/04/20 04:47:24;;;;;;;31.95;22.67;;;8.50;99.90;;;;;;5119427;28;20019;-75
2021/04/20 04:49:51;;;;;;;36.85;26.33;;;8.40;99.90;;;;;;5118252;28;20023;-78
2021/04/20 04:52:20;;;;;;;31.55;25.27;;;8.40;99.90;;;;;;5116974;28;20541;-81
2021/04/20 04:54:46;;;;;;;23.13;17.48;;;8.40;99.90;;;;;;5119858;28;20022;-75
2021/04/20 04:57:14;;;;;;;28.33;20.77;;;8.30;99.90;;;;;;5116046;28;20485;-80
2021/04/20 04:59:42;;;;;;;400.52;233.20;;;8.30;99.90;;;;;;5119360;28;20016;-82
2021/04/20 05:02:08;;;;;;;133.68;77.57;;;8.40;99.90;;;;;;5119346;28;20073;-77
2021/04/20 05:04:34;;;;;;;51.90;28.77;;;8.40;99.90;;;;;;5119790;28;20008;-79
2021/04/20 05:07:01;;;;;;;40.42;24.42;;;8.40;99.90;;;;;;5121160;28;20016;-82
2021/04/20 05:09:27;;;;;;;43.88;24.10;;;8.40;99.90;;;;;;5119425;28;20023;-74
2021/04/20 05:11:53;;;;;;;58.80;26.65;;;8.50;99.90;;;;;;5117080;28;20104;-75
2021/04/20 05:14:21;;;;;;;51.17;26.73;;;8.50;99.90;;;;;;5117874;28;20423;-75
2021/04/20 05:16:49;;;;;;;91.18;36.58;;;8.60;99.90;;;;;;5118084;28;20032;-78
2021/04/20 05:19:29;;;;;;;73.72;35.05;;;8.60;99.90;;;;;;5118931;28;20062;-75
2021/04/20 05:21:56;;;;;;;63.67;33.38;;;8.60;99.90;;;;;;5117487;28;20014;-75
2021/04/20 05:24:22;;;;;;;57.33;28.23;;;8.60;99.90;;;;;;5119585;28;20019;-81
2021/04/20 05:26:48;;;;;;;57.00;30.55;;;8.70;99.90;;;;;;5118108;28;20043;-74
2021/04/20 05:29:14;;;;;;;54.00;29.23;;;8.60;99.90;;;;;;5115779;28;20019;-82
2021/04/20 05:31:40;;;;;;;43.53;25.58;;;8.60;99.90;;;;;;5116565;28;20037;-76
2021/04/20 05:34:07;;;;;;;38.90;23.40;;;8.70;99.90;;;;;;5117446;28;20473;-80
2021/04/20 05:36:35;;;;;;;35.53;22.70;;;8.70;99.90;;;;;;5118652;28;20028;-77
2021/04/20 05:39:06;;;;;;;44.53;24.92;;;8.60;99.90;;;;;;5115038;28;20015;-75
2021/04/20 05:41:34;;;;;;;37.08;22.58;;;8.60;99.90;;;;;;5114922;28;20020;-77
2021/04/20 05:44:02;;;;;;;39.67;27.52;;;8.60;99.90;;;;;;5117796;28;20019;-79
2021/04/20 05:46:28;;;;;;;42.22;25.83;;;8.60;99.90;;;;;;5115904;28;20027;-80
2021/04/20 05:48:55;;;;;;;35.65;22.55;;;8.60;99.90;;;;;;5120430;28;20027;-75
2021/04/20 05:51:23;;;;;;;42.63;26.95;;;8.60;99.90;;;;;;5119417;28;20030;-74
2021/04/20 05:53:51;;;;;;;74.82;53.67;;;8.60;99.90;;;;;;5119150;28;20023;-78
2021/04/20 05:56:19;;;;;;;140.18;93.85;;;8.50;99.90;;;;;;5118843;28;20027;-81
2021/04/20 05:58:45;;;;;;;70.28;43.13;;;8.60;99.90;;;;;;5121167;28;20027;-81
2021/04/20 06:01:12;;;;;;;64.68;45.28;;;;;;;;;;5118105;28;20024;-81
2021/04/20 06:03:41;;;;;;;57.28;33.85;;;8.70;99.90;;;;;;5119892;28;20027;-74
2021/04/20 06:06:09;;;;;;;36.88;24.35;;;8.80;99.90;;;;;;5120790;28;20027;-79
2021/04/20 06:08:37;;;;;;;46.70;32.63;;;8.80;99.90;;;;;;5118871;28;20016;-74
2021/04/20 06:11:04;;;;;;;43.78;28.35;;;8.80;99.90;;;;;;5118622;28;20023;-82
2021/04/20 06:13:31;;;;;;;87.32;47.05;;;8.90;99.90;;;;;;5119008;28;20020;-77
2021/04/20 06:15:57;;;;;;;63.45;37.75;;;8.90;99.90;;;;;;5118872;28;20020;-81
2021/04/20 06:18:25;;;;;;;79.82;48.58;;;8.90;99.90;;;;;;5117489;28;20097;-81
2021/04/20 06:20:53;;;;;;;94.93;54.58;;;9.00;99.90;;;;;;5117936;28;20023;-78
2021/04/20 06:23:20;;;;;;;112.28;67.57;;;9.10;99.90;;;;;;5119250;28;20127;-82
2021/04/20 06:25:47;;;;;;;91.72;47.58;;;9.00;99.90;;;;;;5118041;28;20020;-74
2021/04/20 06:28:14;;;;;;;120.43;73.65;;;9.00;99.90;;;;;;5114519;28;20027;-74
2021/04/20 06:30:41;;;;;;;123.18;78.38;;;9.10;99.90;;;;;;5115464;28;20043;-75
2021/04/20 06:33:08;;;;;;;84.70;52.35;;;9.20;99.90;;;;;;5117003;28;20024;-75
2021/04/20 06:35:35;;;;;;;71.35;55.97;;;9.20;99.90;;;;;;5118196;28;20023;-80
2021/04/20 06:38:01;;;;;;;72.53;49.45;;;9.20;99.90;;;;;;5124764;28;20019;-79
2021/04/20 06:40:32;;;;;;;41.00;25.17;;;9.20;99.90;;;;;;5123837;28;20024;-78
2021/04/20 06:43:03;;;;;;;88.15;61.38;;;9.10;99.90;;;;;;5124328;28;20030;-75
2021/04/20 06:45:41;;;;;;;63.50;44.08;;;9.10;99.90;;;;;;5122872;27;20054;-75
2021/04/20 06:48:19;;;;;;;50.88;35.05;;;9.20;99.90;;;;;;5120426;28;20104;-84
2021/04/20 06:50:47;;;;;;;64.45;43.83;;;9.20;99.90;;;;;;5120088;28;20023;-83
2021/04/20 06:53:18;;;;;;;178.27;97.45;;;9.20;99.90;;;;;;5120038;28;20020;-76
2021/04/20 06:55:48;;;;;;;162.23;86.78;;;9.20;99.90;;;;;;5122645;28;20046;-74
2021/04/20 06:58:21;;;;;;;94.88;55.28;;;9.30;99.90;;;;;;5122124;28;20063;-83
2021/04/20 07:01:00;;;;;;;111.85;55.38;;;9.40;99.90;;;;;;5120002;28;20084;-83
2021/04/20 07:04:10;;;;;;;67.40;36.63;;;9.40;99.90;;;;;;5119927;28;20069;-74
2021/04/20 07:06:51;;;;;;;184.85;70.82;;;9.40;99.90;;;;;;5119103;28;20032;-77
2021/04/20 07:09:28;;;;;;;101.35;53.53;;;9.50;99.90;;;;;;5117005;28;20063;-75
2021/04/20 07:11:55;;;;;;;236.60;101.22;;;9.50;99.90;;;;;;5119000;28;20488;-74
2021/04/20 07:14:52;;;;;;;280.20;115.57;;;9.60;99.90;;;;;;5117945;28;20024;-74
2021/04/20 07:17:36;;;;;;;38.08;28.58;;;9.70;99.90;;;;;;5116416;28;20036;-77
2021/04/20 07:20:11;;;;;;;57.63;34.35;;;9.70;99.90;;;;;;5122751;28;20023;-82
2021/04/20 07:22:52;;;;;;;75.10;40.95;;;9.80;99.90;;;;;;5118997;28;20088;-81
2021/04/20 07:25:30;;;;;;;61.38;39.58;;;9.90;99.90;;;;;;5119751;28;20034;-75
2021/04/20 07:28:21;;;;;;;52.58;35.03;;;10.10;99.90;;;;;;5120773;28;20524;-75
2021/04/20 07:31:06;;;;;;;23.50;17.48;;;10.20;99.90;;;;;;5121956;28;20139;-80
2021/04/20 07:33:38;;;;;;;;;;;10.20;99.90;;;;;;5122507;28;20051;-80
2021/04/20 07:36:17;;;;;;;40.63;26.50;;;10.30;99.90;;;;;;5119753;28;19904;-82
2021/04/20 07:38:58;;;;;;;28.35;20.35;;;10.40;99.90;;;;;;5120385;28;20612;-74
2021/04/20 07:41:30;;;;;;;58.00;43.97;;;10.50;99.90;;;;;;5119508;28;20035;-79
2021/04/20 07:44:17;;;;;;;29.63;21.00;;;10.60;99.90;;;;;;5120520;28;20023;-80
2021/04/20 07:46:55;;;;;;;45.90;34.85;;;10.60;99.90;;;;;;5120106;28;20000;-82
2021/04/20 07:49:56;;;;;;;30.85;25.20;;;10.80;99.90;;;;;;5121050;28;20019;-85
2021/04/20 07:52:40;;;;;;;32.10;21.30;;;10.80;99.90;;;;;;5102776;28;20032;-75
2021/04/20 07:55:15;;;;;;;18.25;14.15;;;10.90;99.90;;;;;;5116511;28;20102;-76
2021/04/20 07:57:51;;;;;;;21.25;16.48;;;11.00;99.90;;;;;;5118761;28;20031;-76
2021/04/20 08:00:19;;;;;;;17.55;13.77;;;11.00;99.90;;;;;;5118629;28;20039;-76
2021/04/20 08:02:52;;;;;;;24.55;21.33;;;11.00;99.90;;;;;;5119181;28;20486;-75
2021/04/20 08:06:06;;;;;;;23.60;18.90;;;11.00;99.90;;;;;;5123773;28;20016;-78
2021/04/20 08:08:39;;;;;;;179.18;123.28;;;11.10;99.90;;;;;;5038501;28;20149;-83
2021/04/20 08:11:08;;;;;;;25.60;21.67;;;11.30;99.90;;;;;;5039700;28;20121;-81
2021/04/20 08:14:16;;;;;;;33.25;23.00;;;11.40;99.90;;;;;;5039479;28;20020;-77
2021/04/20 08:17:02;;;;;;;46.00;33.53;;;11.60;99.90;;;;;;5027000;28;20042;-74
2021/04/20 08:19:41;;;;;;;103.90;48.58;;;12.00;99.90;;;;;;5029987;28;20325;-75
2021/04/20 08:22:08;;;;;;;36.00;24.45;;;12.10;99.90;;;;;;5018266;28;20510;-76
2021/04/20 08:24:40;;;;;;;37.42;25.75;;;12.10;99.90;;;;;;5038647;28;20141;-81
2021/04/20 08:27:46;;;;;;;53.30;38.17;;;12.40;99.90;;;;;;5038433;28;20203;-78
2021/04/20 08:30:16;;;;;;;;;;;12.30;99.90;;;;;;5026567;28;20068;-75
2021/04/20 08:32:46;;;;;;;20.85;16.17;;;12.70;99.90;;;;;;5022997;28;19905;-78
2021/04/20 08:35:15;;;;;;;29.20;22.55;;;;;;;;;;5023236;28;20033;-78
2021/04/20 08:38:19;;;;;;;56.67;31.02;;;12.30;99.90;;;;;;5005427;28;20038;-80
2021/04/20 08:41:07;;;;;;;36.58;24.92;;;12.10;99.90;;;;;;5013754;28;20038;-76
2021/04/20 08:43:53;;;;;;;21.27;17.23;;;12.10;99.90;;;;;;5033741;28;20076;-76
2021/04/20 08:46:37;;;;;;;20.25;15.52;;;12.00;99.90;;;;;;5101585;28;20020;-76
2021/04/20 08:49:35;;;;;;;19.77;15.57;;;11.90;99.90;;;;;;5099913;28;20008;-74
2021/04/20 08:52:06;;;;;;;39.92;21.95;;;12.00;99.90;;;;;;5111167;28;20048;-75
2021/04/20 08:55:03;;;;;;;38.00;22.63;;;12.30;99.90;;;;;;5113399;28;20027;-76
2021/04/20 08:58:03;;;;;;;34.03;22.52;;;12.50;99.90;;;;;;5112959;28;20034;-77
2021/04/20 09:00:35;;;;;;;35.92;21.65;;;12.70;99.90;;;;;;5082651;28;20036;-75
2021/04/20 09:03:18;;;;;;;44.97;30.27;;;13.10;99.90;;;;;;5098306;28;20063;-77
2021/04/20 09:05:55;;;;;;;22.15;17.27;;;13.00;99.90;;;;;;5110031;28;20022;-79
2021/04/20 09:08:40;;;;;;;36.97;24.00;;;13.10;99.90;;;;;;5121062;27;20098;-79
2021/04/20 09:11:19;;;;;;;23.42;17.83;;;13.30;99.90;;;;;;5121174;28;20011;-78
2021/04/20 09:14:02;;;;;;;31.13;22.75;;;13.60;99.30;;;;;;5118010;28;20028;-80
2021/04/20 09:16:57;;;;;;;35.00;22.55;;;14.10;99.90;;;;;;5118335;28;20032;-81
2021/04/20 09:19:35;;;;;;;27.83;19.38;;;14.40;97.20;;;;;;5117467;28;20501;-79
2021/04/20 09:22:13;;;;;;;81.45;40.60;;;14.70;97.00;;;;;;5121087;28;20496;-76
2021/04/20 09:24:48;;;;;;;38.03;28.17;;;14.20;97.40;;;;;;5121174;28;20086;-77
2021/04/20 09:27:21;;;;;;;52.22;33.67;;;13.70;95.10;;;;;;5119845;28;20140;-85
2021/04/20 09:30:05;;;;;;;42.75;27.48;;;13.80;98.00;;;;;;5120278;28;20055;-77
2021/04/20 09:32:43;;;;;;;65.55;36.47;;;13.80;98.90;;;;;;5120287;28;20098;-75
2021/04/20 09:35:11;;;;;;;58.97;32.80;;;13.90;98.10;;;;;;5112290;28;20183;-76
2021/04/20 09:37:41;;;;;;;35.10;22.85;;;14.00;97.50;;;;;;5113795;28;20036;-73
2021/04/20 09:40:11;;;;;;;34.38;22.73;;;13.80;97.70;;;;;;5113849;28;20039;-73
2021/04/20 09:42:37;;;;;;;30.52;20.63;;;13.70;97.30;;;;;;5113891;28;20462;-76
2021/04/20 09:45:22;;;;;;;135.60;63.25;;;13.50;97.80;;;;;;5113810;28;20044;-77
2021/04/20 09:48:00;;;;;;;;;;;13.20;98.40;;;;;;5114186;28;20028;-75
2021/04/20 09:50:35;;;;;;;42.92;25.52;;;13.30;99.10;;;;;;5113741;28;19911;-78
2021/04/20 09:53:09;;;;;;;;;;;13.70;99.90;;;;;;5114201;28;20023;-77
2021/04/20 09:55:53;;;;;;;72.03;36.92;;;13.80;96.30;;;;;;5113575;28;19904;-75
2021/04/20 09:58:21;;;;;;;112.32;54.35;;;13.90;97.40;;;;;;5113408;28;20473;-77
2021/04/20 10:00:49;;;;;;;59.13;32.80;;;13.90;97.70;;;;;;5113356;28;20020;-77
2021/04/20 10:03:23;;;;;;;70.38;38.83;;;13.70;96.90;;;;;;5113609;28;20024;-76
2021/04/20 10:06:09;;;;;;;123.20;61.60;;;13.60;96.50;;;;;;5113586;28;20019;-76
2021/04/20 10:08:35;;;;;;;94.32;46.63;;;13.60;97.00;;;;;;5113570;28;20023;-76
2021/04/20 10:11:09;;;;;;;83.72;42.20;;;13.50;97.90;;;;;;5116270;28;20138;-76
2021/04/20 10:14:00;;;;;;;105.60;49.30;;;13.70;97.10;;;;;;5116312;28;20027;-76
2021/04/20 10:17:06;;;;;;;74.90;37.67;;;13.70;95.30;;;;;;5115749;28;20026;-76
2021/04/20 10:19:58;;;;;;;33.60;21.08;;;13.80;96.40;;;;;;5105838;28;20042;-76
2021/04/20 10:22:37;;;;;;;253.77;87.22;;;14.20;94.90;;;;;;5114248;28;20035;-76
2021/04/20 10:25:12;;;;;;;36.92;21.48;;;14.40;94.40;;;;;;5117242;28;20425;-77
2021/04/20 10:27:39;;;;;;;142.38;61.50;;;15.10;92.70;;;;;;5115532;28;20052;-77
2021/04/20 10:30:11;;;;;;;58.20;29.00;;;15.80;92.70;;;;;;5117078;28;20373;-76
2021/04/20 10:33:03;;;;;;;51.95;27.75;;;15.90;88.40;;;;;;5116372;28;20186;-76
2021/04/20 10:35:33;;;;;;;81.05;37.92;;;16.00;90.30;;;;;;5117401;28;20036;-83
2021/04/20 10:38:01;;;;;;;88.13;38.78;;;16.00;90.10;;;;;;5121641;28;20057;-80
2021/04/20 10:40:35;;;;;;;29.55;20.10;;;15.50;91.20;;;;;;5124379;28;20089;-77
2021/04/20 10:43:12;;;;;;;68.90;29.77;;;15.40;92.60;;;;;;5119927;28;20016;-78
2021/04/20 10:45:40;;;;;;;102.03;48.35;;;15.00;89.40;;;;;;5116909;28;20034;-76
2021/04/20 10:48:09;;;;;;;152.90;67.20;;;14.90;91.60;;;;;;5117557;27;20065;-76
2021/04/20 10:50:38;;;;;;;56.17;31.75;;;14.40;91.40;;;;;;5118205;28;20035;-77
2021/04/20 10:53:19;;;;;;;92.60;44.00;;;14.40;93.90;;;;;;5114833;28;20023;-83
2021/04/20 10:55:52;;;;;;;46.60;25.75;;;14.50;94.00;;;;;;5116219;28;20015;-78
2021/04/20 10:58:25;;;;;;;77.22;41.47;;;14.70;93.90;;;;;;5121344;28;20028;-77
2021/04/20 11:00:52;;;;;;;24.48;15.68;;;14.70;92.80;;;;;;5121541;28;20019;-75
2021/04/20 11:03:32;;;;;;;160.52;72.38;;;14.50;92.50;;;;;;5118898;28;20004;-77
2021/04/20 11:05:58;;;;;;;118.75;55.75;;;14.40;93.30;;;;;;5115395;28;20027;-78
2021/04/20 11:08:43;;;;;;;28.35;20.60;;;14.00;90.50;;;;;;5120990;28;19996;-75
2021/04/20 11:11:19;;;;;;;37.63;25.70;;;13.60;90.70;;;;;;5121820;28;20102;-84
2021/04/20 11:13:45;;;;;;;46.38;28.92;;;13.70;94.00;;;;;;5120988;28;20059;-75
2021/04/20 11:16:12;;;;;;;34.10;22.52;;;13.50;93.30;;;;;;5119233;28;20405;-83
2021/04/20 11:18:43;;;;;;;96.68;52.85;;;13.40;94.50;;;;;;5119655;28;20039;-75
2021/04/20 11:21:17;;;;;;;71.32;39.65;;;13.20;93.80;;;;;;5119587;28;20023;-76
2021/04/20 11:23:58;;;;;;;48.42;27.85;;;13.20;95.70;;;;;;5120989;28;20012;-77
2021/04/20 11:26:30;;;;;;;37.63;26.20;;;13.20;95.60;;;;;;5116955;28;20047;-81
2021/04/20 11:29:02;;;;;;;20.30;14.15;;;12.80;97.80;;;;;;5118562;28;20110;-76
2021/04/20 11:31:34;;;;;;;42.03;29.30;;;12.30;98.80;;;;;;5116414;28;20089;-75
2021/04/20 11:34:06;;;;;;;62.05;44.25;;;11.90;99.90;;;;;;5116764;28;20054;-75
2021/04/20 11:36:56;;;;;;;49.38;44.08;;;11.90;99.90;;;;;;5116072;28;20020;-77
2021/04/20 11:39:28;;;;;;;83.00;66.38;;;11.60;99.90;;;;;;5115298;28;20032;-77
2021/04/20 11:42:04;;;;;;;63.65;45.17;;;11.60;99.90;;;;;;5113704;28;20020;-75
2021/04/20 11:44:52;;;;;;;292.95;138.15;;;11.60;99.90;;;;;;5116864;28;20063;-80
2021/04/20 11:47:19;;;;;;;813.78;466.40;;;11.70;99.90;;;;;;5127095;28;20034;-80
2021/04/20 11:49:57;;;;;;;327.17;161.43;;;11.70;99.90;;;;;;5127030;28;20010;-83
2021/04/20 11:52:33;;;;;;;360.42;190.90;;;11.60;99.90;;;;;;5129065;28;20008;-84
2021/04/20 11:55:06;;;;;;;349.25;193.02;;;11.70;99.90;;;;;;5124987;28;20043;-76
2021/04/20 11:57:34;;;;;;;94.85;56.10;;;11.90;99.90;;;;;;5125148;28;20032;-76
2021/04/20 12:00:04;;;;;;;53.80;34.05;;;12.00;99.90;;;;;;5122303;28;20020;-76
2021/04/20 12:02:33;;;;;;;24.45;17.10;;;12.20;99.90;;;;;;5120524;28;20020;-75
2021/04/20 12:05:11;;;;;;;36.60;26.17;;;12.30;99.40;;;;;;5117517;28;20008;-82
2021/04/20 12:07:38;;;;;;;30.30;21.08;;;12.40;98.70;;;;;;5118182;28;20399;-75
2021/04/20 12:10:06;;;;;;;53.25;32.58;;;12.60;99.10;;;;;;5119084;27;20053;-76
2021/04/20 12:12:35;;;;;;;46.05;31.67;;;12.80;98.80;;;;;;5118506;28;20057;-84
2021/04/20 12:15:07;;;;;;;41.78;29.05;;;12.80;99.20;;;;;;5120972;28;20073;-75
2021/04/20 12:17:39;;;;;;;52.88;31.38;;;13.00;98.10;;;;;;5117376;28;20028;-75
2021/04/20 12:20:11;;;;;;;87.40;60.30;;;12.90;96.70;;;;;;5117777;28;20039;-75
2021/04/20 12:22:38;;;;;;;47.75;36.15;;;13.30;96.80;;;;;;5121514;28;20093;-78
2021/04/20 12:25:07;;;;;;;24.67;18.65;;;13.30;95.70;;;;;;5119963;28;20031;-86
2021/04/20 12:27:34;;;;;;;34.97;27.85;;;13.60;96.00;;;;;;5124693;28;20039;-86
2021/04/20 12:30:03;;;;;;;35.53;25.23;;;14.00;94.70;;;;;;5123252;28;20023;-76
2021/04/20 12:32:31;;;;;;;44.70;32.45;;;14.10;94.40;;;;;;5128201;28;20024;-85
2021/04/20 12:35:00;;;;;;;33.15;25.83;;;14.50;96.10;;;;;;5123817;28;20020;-84
2021/04/20 12:37:31;;;;;;;62.70;47.75;;;14.70;94.60;;;;;;5124742;28;20007;-76
2021/04/20 12:40:01;;;;;;;69.00;49.05;;;14.80;94.20;;;;;;5119487;28;20119;-76
2021/04/20 12:42:37;;;;;;;58.55;47.38;;;14.50;95.00;;;;;;5118130;28;20083;-75
2021/04/20 12:45:15;;;;;;;38.13;29.27;;;14.10;93.60;;;;;;5119639;28;20051;-84
2021/04/20 12:47:42;;;;;;;17.42;13.95;;;14.20;96.10;;;;;;5121661;28;20031;-82
2021/04/20 12:50:14;;;;;;;30.17;22.65;;;14.00;97.40;;;;;;5121886;28;20035;-78
2021/04/20 12:52:42;;;;;;;26.23;20.52;;;14.00;97.00;;;;;;5119226;28;20015;-80
2021/04/20 12:55:20;;;;;;;42.78;27.50;;;13.80;96.40;;;;;;5120630;28;20016;-76
2021/04/20 12:57:48;;;;;;;40.13;25.10;;;13.70;96.00;;;;;;5126907;28;20036;-85
2021/04/20 13:00:21;;;;;;;40.75;24.10;;;13.70;96.30;;;;;;5118556;28;20024;-85